createdAt,value
2018-06-09T00:00:45.830Z,83.25
2018-06-09T00:01:54.656Z,83.25
2018-06-09T00:03:03.520Z,84.69
2018-06-09T00:04:12.384Z,85.56
2018-06-09T00:05:21.351Z,85.66
2018-06-09T00:08:08.830Z,84.84
2018-06-09T00:09:17.694Z,85.56
2018-06-09T00:10:26.560Z,85.33
2018-06-09T00:11:35.422Z,86.72
2018-06-09T00:12:44.620Z,85.71
2018-06-09T00:13:53.493Z,86
2018-06-09T00:15:02.350Z,84.94
2018-06-09T00:16:11.492Z,85.61
2018-06-09T00:17:20.630Z,85.81
2018-06-09T00:18:29.924Z,84.75
2018-06-09T00:19:38.814Z,83.59
2018-06-09T00:20:47.931Z,85.52
2018-06-09T00:21:56.795Z,86
2018-06-09T00:23:05.943Z,85.81
2018-06-09T00:24:15.433Z,85.71
2018-06-09T00:25:24.298Z,84.75
2018-06-09T00:26:33.168Z,84.5
2018-06-09T00:27:42.308Z,85.13
2018-06-09T00:28:51.174Z,85.56
2018-06-09T00:30:00.392Z,86
2018-06-09T00:31:09.540Z,86
2018-06-09T00:32:18.404Z,86.77
2018-06-09T00:33:27.273Z,85.81
2018-06-09T00:34:36.137Z,86.39
2018-06-09T00:35:45.153Z,85.52
2018-06-09T00:36:54.365Z,85.42
2018-06-09T00:38:03.232Z,85.71
2018-06-09T00:39:12.415Z,85.61
2018-06-09T00:40:21.236Z,85.91
2018-06-09T00:41:30.729Z,86.68
2018-06-09T00:42:39.594Z,86.96
2018-06-09T00:43:48.458Z,87.45
2018-06-09T00:44:57.321Z,86.96
2018-06-09T00:46:06.188Z,88.31
2018-06-09T00:47:15.405Z,86.87
2018-06-09T00:48:24.275Z,86.68
2018-06-09T00:49:33.413Z,86
2018-06-09T00:50:42.278Z,86.87
2018-06-09T00:51:51.143Z,88.6
2018-06-09T00:53:00.283Z,88.22
2018-06-09T00:54:09.148Z,88.22
2018-06-09T00:55:18.010Z,89.37
2018-06-09T00:56:27.152Z,88.41
2018-06-09T00:57:36.020Z,89.47
2018-06-09T00:58:45.212Z,89.37
2018-06-09T00:59:54.075Z,89.37
2018-06-09T01:01:02.938Z,89.67
2018-06-09T01:02:11.802Z,89.57
2018-06-09T01:03:20.666Z,89.62
2018-06-09T01:04:29.807Z,88.6
2018-06-09T01:05:38.671Z,90.44
2018-06-09T01:06:47.534Z,89.18
2018-06-09T01:07:56.949Z,89.67
2018-06-09T01:09:05.814Z,90.44
2018-06-09T01:10:14.829Z,90
2018-06-09T01:11:23.693Z,89.23
2018-06-09T01:12:32.560Z,90.82
2018-06-09T01:13:41.426Z,89.53
2018-06-09T01:14:50.290Z,88.7
2018-06-09T01:15:59.515Z,89.72
2018-06-09T01:17:08.665Z,89.23
2018-06-09T01:18:17.810Z,89.67
2018-06-09T01:19:26.674Z,88.89
2018-06-09T01:20:35.814Z,89.04
2018-06-09T01:21:45.112Z,90.24
2018-06-09T01:22:53.976Z,89.23
2018-06-09T01:24:02.841Z,89.37
2018-06-09T01:25:11.703Z,89.14
2018-06-09T01:26:20.567Z,89.81
2018-06-09T01:27:29.581Z,89.53
2018-06-09T01:28:38.475Z,88.85
2018-06-09T01:29:47.307Z,89.67
2018-06-09T01:30:56.172Z,88.85
2018-06-09T01:32:05.036Z,88.65
2018-06-09T01:33:14.050Z,88.6
2018-06-09T01:34:22.916Z,88.65
2018-06-09T01:35:32.058Z,88.22
2018-06-09T01:36:41.195Z,87.88
2018-06-09T01:37:50.058Z,88.79
2018-06-09T01:38:59.022Z,88.27
2018-06-09T01:40:07.887Z,88.89
2018-06-09T01:41:17.030Z,88.7
2018-06-09T01:42:25.894Z,88.56
2018-06-09T01:43:34.757Z,88.65
2018-06-09T01:44:43.771Z,88.85
2018-06-09T01:45:52.634Z,89.23
2018-06-09T01:47:01.497Z,89.33
2018-06-09T01:48:10.359Z,89.53
2018-06-09T01:49:19.222Z,89.62
2018-06-09T01:50:28.185Z,89.04
2018-06-09T01:51:37.049Z,89.81
2018-06-09T01:52:45.914Z,90
2018-06-09T01:53:54.774Z,90.2
2018-06-09T01:55:03.916Z,89.53
2018-06-09T01:56:13.210Z,90.39
2018-06-09T01:57:22.126Z,89.81
2018-06-09T01:58:30.992Z,89.23
2018-06-09T01:59:40.134Z,89.91
2018-06-09T02:00:48.999Z,89.53
2018-06-09T02:01:58.190Z,89.43
2018-06-09T02:03:07.054Z,89.91
2018-06-09T02:04:15.920Z,89.43
2018-06-09T02:05:25.053Z,90.1
2018-06-09T02:06:33.917Z,90.3
2018-06-09T02:07:42.782Z,89.91
2018-06-09T02:08:51.646Z,89.91
2018-06-09T02:10:00.510Z,90.88
2018-06-09T02:11:09.372Z,90.1
2018-06-09T02:12:18.235Z,90.39
2018-06-09T02:13:27.348Z,89.91
2018-06-09T02:14:36.211Z,90.48
2018-06-09T02:15:45.074Z,90.97
2018-06-09T02:16:53.940Z,91.06
2018-06-09T02:18:03.084Z,90.58
2018-06-09T02:19:12.225Z,91.26
2018-06-09T02:20:21.087Z,90.97
2018-06-09T02:21:30.226Z,92.13
2018-06-09T02:22:39.088Z,91.16
2018-06-09T02:23:47.949Z,91.83
2018-06-09T02:24:56.959Z,92.32
2018-06-09T02:26:06.102Z,91.83
2018-06-09T02:27:14.966Z,90.97
2018-06-09T02:28:23.830Z,92.13
2018-06-09T02:29:32.695Z,92.61
2018-06-09T02:30:41.663Z,92.32
2018-06-09T02:31:50.531Z,92.51
2018-06-09T02:32:59.672Z,92.9
2018-06-09T02:34:08.545Z,92.32
2018-06-09T02:35:17.419Z,92.61
2018-06-09T02:36:27.310Z,91.26
2018-06-09T02:37:36.127Z,93.19
2018-06-09T02:38:44.994Z,92.61
2018-06-09T02:39:54.408Z,92.99
2018-06-09T02:41:03.271Z,93.19
2018-06-09T02:42:12.287Z,93.96
2018-06-09T02:43:21.432Z,93.04
2018-06-09T02:44:30.577Z,92.51
2018-06-09T02:45:40.556Z,92.76
2018-06-09T02:46:49.701Z,93.04
2018-06-09T02:47:59.189Z,93.33
2018-06-09T02:49:08.056Z,93.43
2018-06-09T02:50:17.200Z,92.85
2018-06-09T02:51:26.073Z,92.08
2018-06-09T02:52:34.938Z,93.38
2018-06-09T02:53:44.410Z,93.72
2018-06-09T02:54:53.275Z,94.1
2018-06-09T02:56:03.004Z,92.56
2018-06-09T02:57:12.146Z,92.41
2018-06-09T02:58:21.288Z,93.28
2018-06-09T02:59:30.207Z,92.94
2018-06-09T03:00:39.347Z,92.85
2018-06-09T03:01:48.498Z,92.94
2018-06-09T03:02:57.920Z,93.33
2018-06-09T03:04:07.610Z,93.43
2018-06-09T03:05:16.947Z,93.24
2018-06-09T03:06:25.819Z,94.29
2018-06-09T03:07:35.239Z,93.33
2018-06-09T03:08:44.105Z,92.94
2018-06-09T03:09:53.252Z,93.14
2018-06-09T03:11:02.117Z,92.85
2018-06-09T03:12:11.544Z,93.14
2018-06-09T03:13:20.469Z,93.33
2018-06-09T03:14:29.329Z,92.94
2018-06-09T03:15:38.748Z,93.14
2018-06-09T03:16:47.617Z,92.85
2018-06-09T03:17:56.482Z,93.24
2018-06-09T03:19:05.622Z,92.85
2018-06-09T03:20:14.485Z,92.66
2018-06-09T03:21:23.623Z,92.85
2018-06-09T03:22:32.836Z,92.08
2018-06-09T03:23:41.700Z,92.76
2018-06-09T03:24:50.563Z,92.94
2018-06-09T03:25:59.427Z,92.85
2018-06-09T03:27:08.290Z,93.14
2018-06-09T03:28:17.428Z,92.94
2018-06-09T03:29:26.293Z,93.14
2018-06-09T03:30:35.173Z,93.43
2018-06-09T03:31:44.312Z,93.04
2018-06-09T03:32:53.451Z,93.33
2018-06-09T03:34:02.317Z,92.76
2018-06-09T03:35:11.183Z,93.14
2018-06-09T03:36:20.040Z,92.94
2018-06-09T03:37:28.907Z,92.94
2018-06-09T03:38:37.771Z,92.94
2018-06-09T03:39:46.691Z,92.56
2018-06-09T03:40:55.555Z,91.89
2018-06-09T03:42:04.976Z,92.85
2018-06-09T03:43:14.441Z,91.89
2018-06-09T03:44:23.253Z,92.76
2018-06-09T03:45:32.827Z,93.04
2018-06-09T03:46:41.964Z,93.04
2018-06-09T03:47:50.826Z,93.24
2018-06-09T03:48:59.701Z,93.14
2018-06-09T03:50:08.554Z,93.24
2018-06-09T03:51:17.797Z,93.14
2018-06-09T03:52:26.661Z,92.94
2018-06-09T03:53:35.806Z,93.14
2018-06-09T03:54:44.667Z,92.56
2018-06-09T03:55:53.529Z,92.76
2018-06-09T03:57:02.739Z,93.24
2018-06-09T03:58:11.603Z,93.14
2018-06-09T03:59:20.473Z,93.04
2018-06-09T04:00:29.612Z,93.14
2018-06-09T04:01:38.476Z,93.24
2018-06-09T04:02:47.389Z,93.33
2018-06-09T04:03:56.251Z,93.14
2018-06-09T04:05:05.118Z,92.94
2018-06-09T04:06:13.986Z,93.14
2018-06-09T04:07:22.902Z,93.81
2018-06-09T04:08:32.698Z,93.29
2018-06-09T04:09:41.563Z,93.24
2018-06-09T04:10:50.431Z,94.01
2018-06-09T04:11:59.290Z,93.91
2018-06-09T04:13:08.154Z,94.01
2018-06-09T04:14:17.368Z,94.49
2018-06-09T04:15:26.233Z,94.15
2018-06-09T04:16:35.095Z,94.34
2018-06-09T04:17:43.959Z,93.96
2018-06-09T04:18:53.101Z,95.12
2018-06-09T04:20:02.069Z,95.4
2018-06-09T04:21:11.492Z,94.54
2018-06-09T04:22:20.914Z,94.25
2018-06-09T04:23:30.065Z,93.33
2018-06-09T04:24:39.192Z,93.62
2018-06-09T04:25:48.408Z,93.19
2018-06-09T04:26:57.553Z,93.14
2018-06-09T04:28:06.415Z,93.14
2018-06-09T04:29:15.284Z,94.2
2018-06-09T04:30:24.149Z,94.01
2018-06-09T04:31:33.011Z,93.43
2018-06-09T04:32:41.880Z,94.1
2018-06-09T04:33:51.026Z,93.96
2018-06-09T04:34:59.886Z,94.29
2018-06-09T04:36:08.752Z,94.06
2018-06-09T04:37:17.767Z,93.24
2018-06-09T04:38:26.636Z,93.52
2018-06-09T04:39:36.058Z,93.24
2018-06-09T04:40:44.920Z,93.57
2018-06-09T04:41:53.783Z,93.43
2018-06-09T04:43:03.099Z,93.09
2018-06-09T04:44:12.237Z,93.24
2018-06-09T04:45:21.102Z,93.33
2018-06-09T04:46:29.966Z,93.24
2018-06-09T04:47:38.829Z,92.47
2018-06-09T04:48:47.694Z,92.66
2018-06-09T04:49:56.829Z,93.04
2018-06-09T04:51:05.694Z,93.43
2018-06-09T04:52:14.878Z,93.04
2018-06-09T04:53:23.706Z,93.24
2018-06-09T04:54:32.947Z,93.24
2018-06-09T04:55:41.812Z,93.62
2018-06-09T04:56:50.964Z,92.66
2018-06-09T04:57:59.828Z,93.43
2018-06-09T04:59:08.693Z,92.85
2018-06-09T05:00:17.949Z,93.62
2018-06-09T05:01:27.090Z,92.94
2018-06-09T05:02:35.955Z,92.76
2018-06-09T05:03:44.819Z,92.76
2018-06-09T05:04:53.957Z,91.99
2018-06-09T05:06:02.874Z,92.18
2018-06-09T05:07:11.768Z,92.76
2018-06-09T05:08:20.907Z,92.27
2018-06-09T05:09:29.772Z,91.99
2018-06-09T05:10:38.636Z,92.8
2018-06-09T05:11:48.127Z,92.27
2018-06-09T05:12:56.995Z,91.89
2018-06-09T05:14:06.150Z,92.37
2018-06-09T05:15:15.289Z,92.22
2018-06-09T05:16:24.158Z,92.32
2018-06-09T05:17:33.025Z,92.61
2018-06-09T05:18:41.891Z,92.32
2018-06-09T05:19:50.753Z,92.41
2018-06-09T05:20:59.617Z,92.32
2018-06-09T05:22:08.482Z,92.13
2018-06-09T05:23:17.346Z,91.64
2018-06-09T05:24:26.491Z,91.45
2018-06-09T05:25:35.354Z,91.93
2018-06-09T05:26:44.219Z,90.97
2018-06-09T05:27:53.081Z,91.26
2018-06-09T05:29:02.222Z,91.45
2018-06-09T05:30:11.929Z,91.55
2018-06-09T05:31:20.851Z,91.55
2018-06-09T05:32:29.716Z,91.45
2018-06-09T05:33:38.596Z,90.68
2018-06-09T05:34:48.186Z,91.45
2018-06-09T05:35:57.127Z,91.74
2018-06-09T05:37:06.276Z,91.55
2018-06-09T05:38:15.172Z,92.36
2018-06-09T05:39:24.033Z,91.3
2018-06-09T05:40:32.950Z,91.3
2018-06-09T05:41:41.816Z,91.02
2018-06-09T05:42:50.686Z,91.11
2018-06-09T05:43:59.555Z,91.3
2018-06-09T05:45:08.477Z,91.88
2018-06-09T05:46:17.448Z,91.69
2018-06-09T05:47:26.606Z,91.88
2018-06-09T05:48:35.515Z,91.4
2018-06-09T05:49:44.653Z,91.88
2018-06-09T05:50:53.533Z,91.5
2018-06-09T05:52:03.071Z,90.63
2018-06-09T05:53:11.944Z,90.92
2018-06-09T05:54:20.832Z,91.06
2018-06-09T05:55:29.945Z,91.2
2018-06-09T05:56:39.686Z,90.82
2018-06-09T05:57:48.988Z,90.53
2018-06-09T05:58:57.855Z,90
2018-06-09T06:00:06.719Z,90.29
2018-06-09T06:01:15.585Z,90.29
2018-06-09T06:02:24.450Z,90.29
2018-06-09T06:03:33.690Z,90.29
2018-06-09T06:04:42.636Z,90.77
2018-06-09T06:05:51.514Z,90.09
2018-06-09T06:07:00.378Z,89.9
2018-06-09T06:08:09.242Z,89.32
2018-06-09T06:09:18.112Z,89.13
2018-06-09T06:10:27.364Z,89.32
2018-06-09T06:11:36.393Z,89.47
2018-06-09T06:12:45.260Z,89.37
2018-06-09T06:13:54.132Z,89.47
2018-06-09T06:15:03.326Z,89.47
2018-06-09T06:16:12.331Z,89.37
2018-06-09T06:17:21.392Z,89.47
2018-06-09T06:18:30.258Z,89.17
2018-06-09T06:19:39.401Z,89.47
2018-06-09T06:20:48.619Z,89.37
2018-06-09T06:21:57.585Z,89.37
2018-06-09T06:23:06.866Z,88.79
2018-06-09T06:24:16.219Z,88.89
2018-06-09T06:25:25.318Z,88.59
2018-06-09T06:26:34.778Z,88.4
2018-06-09T06:27:43.913Z,88.31
2018-06-09T06:28:52.997Z,88.4
2018-06-09T06:30:01.996Z,88.79
2018-06-09T06:31:10.865Z,88.59
2018-06-09T06:32:19.880Z,87.73
2018-06-09T06:33:28.746Z,88.15
2018-06-09T06:34:37.612Z,87.77
2018-06-09T06:35:46.754Z,87.82
2018-06-09T06:36:55.899Z,87.82
2018-06-09T06:38:05.572Z,88.5
2018-06-09T06:39:14.725Z,88.15
2018-06-09T06:40:23.869Z,88.35
2018-06-09T06:41:32.735Z,88.31
2018-06-09T06:42:41.602Z,88.15
2018-06-09T06:43:50.471Z,87.67
2018-06-09T06:44:59.377Z,86.8
2018-06-09T06:46:08.622Z,86.42
2018-06-09T06:47:17.874Z,86.22
2018-06-09T06:48:27.042Z,86.42
2018-06-09T06:49:36.184Z,86.71
2018-06-09T06:50:45.049Z,86.52
2018-06-09T06:51:53.915Z,86.32
2018-06-09T06:53:02.782Z,86.22
2018-06-09T06:54:11.647Z,86.13
2018-06-09T06:55:20.513Z,86.13
2018-06-09T06:56:29.657Z,86.56
2018-06-09T06:57:38.861Z,85.64
2018-06-09T06:58:47.761Z,85.94
2018-06-09T06:59:56.627Z,85.88
2018-06-09T07:01:05.563Z,85.88
2018-06-09T07:02:14.431Z,86.07
2018-06-09T07:03:23.298Z,85.4
2018-06-09T07:04:32.166Z,85.3
2018-06-09T07:05:41.036Z,85.59
2018-06-09T07:06:50.177Z,85.59
2018-06-09T07:07:59.063Z,85.01
2018-06-09T07:09:07.913Z,84.91
2018-06-09T07:10:16.781Z,84.82
2018-06-09T07:11:25.918Z,84.91
2018-06-09T07:12:35.138Z,84.24
2018-06-09T07:13:44.007Z,84.43
2018-06-09T07:14:52.873Z,83.85
2018-06-09T07:16:01.742Z,84.63
2018-06-09T07:17:11.159Z,84.14
2018-06-09T07:18:20.026Z,84.14
2018-06-09T07:19:28.903Z,84.53
2018-06-09T07:20:37.770Z,84.28
2018-06-09T07:21:46.638Z,84.28
2018-06-09T07:22:55.799Z,84.38
2018-06-09T07:24:04.666Z,84.86
2018-06-09T07:25:13.532Z,85.25
2018-06-09T07:26:22.676Z,84.67
2018-06-09T07:27:31.540Z,84.57
2018-06-09T07:28:40.405Z,83.61
2018-06-09T07:29:49.523Z,83.51
2018-06-09T07:30:58.393Z,83.7
2018-06-09T07:32:07.813Z,83.41
2018-06-09T07:33:16.680Z,83.84
2018-06-09T07:34:25.548Z,83.51
2018-06-09T07:35:34.839Z,83.64
2018-06-09T07:36:43.705Z,82.78
2018-06-09T07:37:52.859Z,83.36
2018-06-09T07:39:02.002Z,83.55
2018-06-09T07:40:10.868Z,83.16
2018-06-09T07:41:19.936Z,83.16
2018-06-09T07:42:28.803Z,82.78
2018-06-09T07:43:37.672Z,82.87
2018-06-09T07:44:47.098Z,82.78
2018-06-09T07:45:56.066Z,82.78
2018-06-09T07:47:05.213Z,83.06
2018-06-09T07:48:14.082Z,82.97
2018-06-09T07:49:22.950Z,83.55
2018-06-09T07:50:32.113Z,83.06
2018-06-09T07:51:40.983Z,82.97
2018-06-09T07:52:49.852Z,82.58
2018-06-09T07:53:59.124Z,82.68
2018-06-09T07:55:08.834Z,83.01
2018-06-09T07:56:18.681Z,83.01
2018-06-09T07:57:28.881Z,82.62
2018-06-09T07:58:38.434Z,82.43
2018-06-09T07:59:48.232Z,82.81
2018-06-09T08:00:57.684Z,81.95
2018-06-09T08:02:07.091Z,82.23
2018-06-09T08:03:17.177Z,82.14
2018-06-09T08:04:27.002Z,81.98
2018-06-09T08:05:37.321Z,81.65
2018-06-09T08:06:46.229Z,81.85
2018-06-09T08:07:55.792Z,81.79
2018-06-09T08:09:04.663Z,81.85
2018-06-09T08:10:13.807Z,81.5
2018-06-09T08:11:22.676Z,82.18
2018-06-09T08:12:31.544Z,81.6
2018-06-09T08:13:40.689Z,81.79
2018-06-09T08:14:49.555Z,81.5
2018-06-09T08:15:58.700Z,81.3
2018-06-09T08:17:07.849Z,81.98
2018-06-09T08:18:16.718Z,81.5
2018-06-09T08:19:25.914Z,81.98
2018-06-09T08:20:35.129Z,82.08
2018-06-09T08:21:43.998Z,81.98
2018-06-09T08:22:53.146Z,81.79
2018-06-09T08:24:02.119Z,81.79
2018-06-09T08:25:10.987Z,81.89
2018-06-09T08:26:19.864Z,81.5
2018-06-09T08:27:28.736Z,81.4
2018-06-09T08:28:37.606Z,81.98
2018-06-09T08:29:46.576Z,82.57
2018-06-09T08:30:55.447Z,82.37
2018-06-09T08:32:04.596Z,83
2018-06-09T08:33:13.467Z,82.08
2018-06-09T08:34:22.344Z,82.51
2018-06-09T08:35:31.882Z,81.89
2018-06-09T08:36:40.761Z,82.32
2018-06-09T08:37:49.642Z,81.93
2018-06-09T08:38:58.528Z,81.64
2018-06-09T08:40:07.683Z,81.45
2018-06-09T08:41:16.701Z,81.64
2018-06-09T08:42:25.573Z,81.45
2018-06-09T08:43:34.441Z,81.54
2018-06-09T08:44:43.312Z,82.12
2018-06-09T08:45:52.739Z,81.45
2018-06-09T08:47:01.608Z,82.12
2018-06-09T08:48:10.479Z,81.68
2018-06-09T08:49:19.349Z,80.32
2018-06-09T08:50:28.261Z,80.52
2018-06-09T08:51:37.161Z,80.9
2018-06-09T08:52:46.081Z,80.13
2018-06-09T08:53:54.950Z,80.42
2018-06-09T08:55:03.821Z,80.22
2018-06-09T08:56:12.973Z,80.22
2018-06-09T08:57:21.846Z,79.78
2018-06-09T08:58:31.318Z,79.1
2018-06-09T08:59:40.189Z,78.71
2018-06-09T09:00:49.061Z,78.33
2018-06-09T09:01:58.205Z,78.23
2018-06-09T09:03:07.081Z,78.03
2018-06-09T09:04:16.240Z,78.71
2018-06-09T09:05:25.110Z,77.59
2018-06-09T09:06:33.985Z,76.97
2018-06-09T09:07:43.134Z,76.52
2018-06-09T09:08:52.002Z,77.01
2018-06-09T09:10:01.222Z,75.07
2018-06-09T09:11:10.092Z,75.07
2018-06-09T09:12:18.961Z,75.84
2018-06-09T09:13:27.830Z,75.07
2018-06-09T09:14:36.699Z,74.58
2018-06-09T09:15:45.919Z,75.2
2018-06-09T09:16:54.787Z,74.23
2018-06-09T09:18:03.660Z,74.52
2018-06-09T09:19:12.524Z,74.33
2018-06-09T09:20:21.391Z,73.94
2018-06-09T09:21:30.262Z,72.97
2018-06-09T09:22:39.129Z,72.87
2018-06-09T09:23:48.000Z,73.78
2018-06-09T09:24:57.015Z,73.07
2018-06-09T09:26:05.890Z,72.42
2018-06-09T09:27:15.037Z,71.64
2018-06-09T09:28:23.942Z,72.42
2018-06-09T09:29:32.909Z,72.81
2018-06-09T09:30:42.246Z,72.71
2018-06-09T09:31:51.117Z,73.88
2018-06-09T09:33:00.462Z,71.36
2018-06-09T09:34:09.333Z,72.42
2018-06-09T09:35:18.481Z,71.16
2018-06-09T09:36:27.351Z,70.67
2018-06-09T09:37:36.495Z,70.19
2018-06-09T09:38:45.369Z,71.06
2018-06-09T09:39:54.247Z,70.57
2018-06-09T09:41:03.118Z,70
2018-06-09T09:42:12.259Z,70.09
2018-06-09T09:43:21.126Z,69.9
2018-06-09T09:44:29.997Z,70.77
2018-06-09T09:45:38.865Z,69.02
2018-06-09T09:46:47.735Z,69.22
2018-06-09T09:47:56.605Z,68.63
2018-06-09T09:49:05.471Z,69.7
2018-06-09T09:50:14.588Z,71.64
2018-06-09T09:51:23.461Z,72.23
2018-06-09T09:52:32.332Z,70.9
2018-06-09T09:53:41.199Z,71.58
2018-06-09T09:54:50.072Z,71.68
2018-06-09T09:55:59.222Z,71.88
2018-06-09T09:57:08.359Z,70.77
2018-06-09T09:58:17.227Z,72.27
2018-06-09T09:59:26.094Z,71.1
2018-06-09T10:00:35.244Z,71.2
2018-06-09T10:01:44.567Z,71.39
2018-06-09T10:02:53.433Z,70.75
2018-06-09T10:04:02.585Z,70.94
2018-06-09T10:05:11.456Z,70.16
2018-06-09T10:06:20.321Z,70.06
2018-06-09T10:07:29.189Z,70.06
2018-06-09T10:08:38.056Z,69.96
2018-06-09T10:09:46.942Z,69.67
2018-06-09T10:10:55.810Z,69.77
2018-06-09T10:12:04.680Z,69.77
2018-06-09T10:13:13.547Z,69.29
2018-06-09T10:14:22.417Z,69.38
2018-06-09T10:15:31.565Z,68.41
2018-06-09T10:16:40.437Z,68.41
2018-06-09T10:17:49.301Z,67.63
2018-06-09T10:18:58.271Z,66.69
2018-06-09T10:20:07.138Z,67.08
2018-06-09T10:21:16.288Z,67.02
2018-06-09T10:22:25.162Z,66.05
2018-06-09T10:23:34.305Z,66.93
2018-06-09T10:24:43.421Z,66.44
2018-06-09T10:25:52.577Z,66.44
2018-06-09T10:27:01.725Z,66.24
2018-06-09T10:28:10.874Z,65.85
2018-06-09T10:29:19.743Z,64.32
2018-06-09T10:30:28.766Z,64.49
2018-06-09T10:31:37.950Z,65.46
2018-06-09T10:32:47.490Z,64.49
2018-06-09T10:33:56.318Z,63.81
2018-06-09T10:35:05.469Z,64.29
2018-06-09T10:36:14.488Z,65.5
2018-06-09T10:37:23.360Z,63.84
2018-06-09T10:38:32.231Z,64.13
2018-06-09T10:39:41.434Z,63.75
2018-06-09T10:40:50.302Z,64.72
2018-06-09T10:41:59.271Z,64.32
2018-06-09T10:43:08.141Z,64.23
2018-06-09T10:44:17.291Z,63.06
2018-06-09T10:45:26.162Z,62.57
2018-06-09T10:46:35.034Z,61.63
2018-06-09T10:47:44.328Z,60.75
2018-06-09T10:48:53.199Z,60.95
2018-06-09T10:50:02.355Z,59
2018-06-09T10:51:11.225Z,57.37
2018-06-09T10:52:20.095Z,58.74
2018-06-09T10:53:29.293Z,58.06
2018-06-09T10:54:38.164Z,59.42
2018-06-09T10:55:47.036Z,59.91
2018-06-09T10:56:56.183Z,60.56
2018-06-09T10:58:05.057Z,58.13
2018-06-09T10:59:14.030Z,58.42
2018-06-09T11:00:23.177Z,58.94
2018-06-09T11:01:32.333Z,59.13
2018-06-09T11:02:41.487Z,58.48
2018-06-09T11:03:50.633Z,58.87
2018-06-09T11:04:59.552Z,58.38
2018-06-09T11:06:08.705Z,58.02
2018-06-09T11:07:17.584Z,55.87
2018-06-09T11:08:26.451Z,53.85
2018-06-09T11:09:35.323Z,52.36
2018-06-09T11:10:44.294Z,52.78
2018-06-09T11:11:53.447Z,52.87
2018-06-09T11:13:02.326Z,52.48
2018-06-09T11:14:11.189Z,51.9
2018-06-09T11:15:20.059Z,52.39
2018-06-09T11:16:28.934Z,52.39
2018-06-09T11:17:37.801Z,52.12
2018-06-09T11:18:46.943Z,51.34
2018-06-09T11:19:55.812Z,52.8
2018-06-09T11:21:05.246Z,52.44
2018-06-09T11:22:14.313Z,51.37
2018-06-09T11:23:23.185Z,51.76
2018-06-09T11:24:32.509Z,49
2018-06-09T11:25:41.299Z,49.51
2018-06-09T11:26:50.176Z,49
2018-06-09T11:27:59.049Z,49.98
2018-06-09T11:29:08.202Z,48.83
2018-06-09T11:30:17.359Z,49.51
2018-06-09T11:31:26.514Z,50
2018-06-09T11:32:35.660Z,49.9
2018-06-09T11:33:44.583Z,49.41
2018-06-09T11:34:53.459Z,50.29
2018-06-09T11:36:02.333Z,48.83
2018-06-09T11:37:11.494Z,49.51
2018-06-09T11:38:20.362Z,48.44
2018-06-09T11:39:29.235Z,50.42
2018-06-09T11:40:38.113Z,49.71
2018-06-09T11:41:46.982Z,50.2
2018-06-09T11:42:55.856Z,49.53
2018-06-09T11:44:04.734Z,48.94
2018-06-09T11:45:14.235Z,48.75
2018-06-09T11:46:23.383Z,48.65
2018-06-09T11:47:32.256Z,47.97
2018-06-09T11:48:41.130Z,49.65
2018-06-09T11:49:50.001Z,49.36
2018-06-09T11:50:59.252Z,48.58
2018-06-09T11:52:08.124Z,49.36
2018-06-09T11:53:17.277Z,49.16
2018-06-09T11:54:26.147Z,49.07
2018-06-09T11:55:35.295Z,48.97
2018-06-09T11:56:44.168Z,48.97
2018-06-09T11:57:53.040Z,48.58
2018-06-09T11:59:01.914Z,47.6
2018-06-09T12:00:11.072Z,47.31
2018-06-09T12:01:20.224Z,47.8
2018-06-09T12:02:29.246Z,47.41
2018-06-09T12:03:38.400Z,48.38
2018-06-09T12:04:47.555Z,46.72
2018-06-09T12:05:56.706Z,46.62
2018-06-09T12:07:05.580Z,45.55
2018-06-09T12:08:14.451Z,47.53
2018-06-09T12:09:23.325Z,47.21
2018-06-09T12:10:32.199Z,46.65
2018-06-09T12:11:41.072Z,46.97
2018-06-09T12:12:49.969Z,47.55
2018-06-09T12:13:59.168Z,46.89
2018-06-09T12:15:08.052Z,45.83
2018-06-09T12:16:16.928Z,43.88
2018-06-09T12:17:25.906Z,43.6
2018-06-09T12:18:34.780Z,43.31
2018-06-09T12:19:43.756Z,44.38
2018-06-09T12:20:52.634Z,43.99
2018-06-09T12:22:01.512Z,43.21
2018-06-09T12:23:10.386Z,43.6
2018-06-09T12:24:19.263Z,43.13
2018-06-09T12:25:28.241Z,42.74
2018-06-09T12:26:37.118Z,43.43
2018-06-09T12:27:46.002Z,42.25
2018-06-09T12:28:55.157Z,41.39
2018-06-09T12:30:04.034Z,41.88
2018-06-09T12:31:12.965Z,41.31
2018-06-09T12:32:21.845Z,41.31
2018-06-09T12:33:31.003Z,40.8
2018-06-09T12:34:39.882Z,40.61
2018-06-09T12:35:48.761Z,39.82
2018-06-09T12:36:57.990Z,39.72
2018-06-09T12:38:06.868Z,42.74
2018-06-09T12:39:15.750Z,40.09
2018-06-09T12:40:25.021Z,39.43
2018-06-09T12:41:33.898Z,41.98
2018-06-09T12:42:42.777Z,40.7
2018-06-09T12:43:51.660Z,40.72
2018-06-09T12:45:00.817Z,40.43
2018-06-09T12:46:10.257Z,39.92
2018-06-09T12:47:19.133Z,41.19
2018-06-09T12:48:28.080Z,39.72
2018-06-09T12:49:37.230Z,39.72
2018-06-09T12:50:46.106Z,39.84
2018-06-09T12:51:54.986Z,40.23
2018-06-09T12:53:03.869Z,40.33
2018-06-09T12:54:12.847Z,40.92
2018-06-09T12:55:21.724Z,40.33
2018-06-09T12:56:30.600Z,39.84
2018-06-09T12:57:39.479Z,39.64
2018-06-09T12:58:48.356Z,39.23
2018-06-09T12:59:57.234Z,38.45
2018-06-09T13:01:06.114Z,38.93
2018-06-09T13:02:15.268Z,38.25
2018-06-09T13:03:24.425Z,38.35
2018-06-09T13:04:33.303Z,38.06
2018-06-09T13:05:42.256Z,38.54
2018-06-09T13:06:51.775Z,39.33
2018-06-09T13:08:00.651Z,37.27
2018-06-09T13:09:09.529Z,38.96
2018-06-09T13:10:18.405Z,38.37
2018-06-09T13:11:27.598Z,37.58
2018-06-09T13:12:36.754Z,37.58
2018-06-09T13:13:45.630Z,37.19
2018-06-09T13:14:54.505Z,36.8
2018-06-09T13:16:03.380Z,36.58
2018-06-09T13:17:12.611Z,38.84
2018-06-09T13:18:21.487Z,36.86
2018-06-09T13:19:30.442Z,37.25
2018-06-09T13:20:39.254Z,36.66
2018-06-09T13:21:48.131Z,36.86
2018-06-09T13:22:57.343Z,36.98
2018-06-09T13:24:06.226Z,37.66
2018-06-09T13:25:15.103Z,39.14
2018-06-09T13:26:23.980Z,38.85
2018-06-09T13:27:32.858Z,36.99
2018-06-09T13:28:41.890Z,37.19
2018-06-09T13:29:51.322Z,36.91
2018-06-09T13:31:00.197Z,37.11
2018-06-09T13:32:09.079Z,36.34
2018-06-09T13:33:18.232Z,36.44
2018-06-09T13:34:27.110Z,35.95
2018-06-09T13:35:35.991Z,35.66
2018-06-09T13:36:44.872Z,34.99
2018-06-09T13:37:53.752Z,34.77
2018-06-09T13:39:02.634Z,34.3
2018-06-09T13:40:12.182Z,35.18
2018-06-09T13:41:21.129Z,35.38
2018-06-09T13:42:30.309Z,35.39
2018-06-09T13:43:39.189Z,33.53
2018-06-09T13:44:48.072Z,34.23
2018-06-09T13:45:57.331Z,31.97
2018-06-09T13:47:06.213Z,33.15
2018-06-09T13:48:15.096Z,33.94
2018-06-09T13:49:23.983Z,33.07
2018-06-09T13:50:32.863Z,34.17
2018-06-09T13:51:42.097Z,32.77
2018-06-09T13:52:50.979Z,33.95
2018-06-09T13:53:59.862Z,32.56
2018-06-09T13:55:09.026Z,33.26
2018-06-09T13:56:17.908Z,32.48
2018-06-09T13:57:27.146Z,32.98
2018-06-09T13:58:36.025Z,33.07
2018-06-09T13:59:44.906Z,32.29
2018-06-09T14:00:53.789Z,31.7
2018-06-09T14:02:02.675Z,31.62
2018-06-09T14:03:11.936Z,31.23
2018-06-09T14:04:20.817Z,30.93
2018-06-09T14:05:29.698Z,30.65
2018-06-09T14:06:38.580Z,30.66
2018-06-09T14:07:47.462Z,30.96
2018-06-09T14:08:56.798Z,31.06
2018-06-09T14:10:05.682Z,30.47
2018-06-09T14:11:14.858Z,30.48
2018-06-09T14:12:23.733Z,30.38
2018-06-09T14:13:32.893Z,30.38
2018-06-09T14:14:42.104Z,30.38
2018-06-09T14:15:50.991Z,29.8
2018-06-09T14:17:00.155Z,30.3
2018-06-09T14:18:09.041Z,29.21
2018-06-09T14:19:18.201Z,29.21
2018-06-09T14:20:27.087Z,29.91
2018-06-09T14:21:36.245Z,29.61
2018-06-09T14:22:45.412Z,29.5
2018-06-09T14:23:54.299Z,29.99
2018-06-09T14:25:03.462Z,29.79
2018-06-09T14:26:13.076Z,30.09
2018-06-09T14:27:21.979Z,30.58
2018-06-09T14:28:31.143Z,30.66
2018-06-09T14:29:40.027Z,30.86
2018-06-09T14:30:48.910Z,31.04
2018-06-09T14:31:57.793Z,32.03
2018-06-09T14:33:06.677Z,30.75
2018-06-09T14:34:15.560Z,30.66
2018-06-09T14:35:24.442Z,30.66
2018-06-09T14:36:33.331Z,31.56
2018-06-09T14:37:42.370Z,30.57
2018-06-09T14:38:51.671Z,30.96
2018-06-09T14:40:00.487Z,30.58
2018-06-09T14:41:09.372Z,30.29
2018-06-09T14:42:18.256Z,29.69
2018-06-09T14:43:27.238Z,30.2
2018-06-09T14:44:36.124Z,30
2018-06-09T14:45:45.017Z,29.99
2018-06-09T14:46:53.903Z,30.09
2018-06-09T14:48:03.061Z,29.97
2018-06-09T14:49:11.945Z,30.09
2018-06-09T14:50:20.829Z,29.6
2018-06-09T14:51:29.712Z,29.6
2018-06-09T14:52:38.598Z,30.19
2018-06-09T14:53:47.808Z,31.17
2018-06-09T14:54:57.136Z,30.19